Time;durP1;ratioP1;P1;durP2;ratioP2;P2;SDS_P1;SDS_P2;PMS_P1;PMS_P2;Temp;Humidity;BMP_temperature;BMP_pressure;BME280_temperature;BME280_humidity;BME280_pressure;Samples;Min_cycle;Max_cycle;Signal;HPM_P1;HPM_P2
2023/09/28 00:00:35;;;;;;;24.85;18.10;;;15.00;99.90;;;;;;2085877;28;20040;-78
2023/09/28 00:01:36;;;;;;;21.98;17.83;;;15.00;99.90;;;;;;2083742;28;20027;-76
2023/09/28 00:02:36;;;;;;;23.40;17.60;;;14.90;99.90;;;;;;2083290;28;20155;-78
2023/09/28 00:03:37;;;;;;;23.23;17.77;;;14.90;99.90;;;;;;2084509;28;20064;-77
2023/09/28 00:04:37;;;;;;;23.02;17.42;;;14.90;99.90;;;;;;2072388;28;20421;-77
2023/09/28 00:05:38;;;;;;;24.33;18.45;;;14.90;99.90;;;;;;2075250;28;20634;-77
2023/09/28 00:06:39;;;;;;;24.65;18.30;;;14.80;99.90;;;;;;2083578;28;20131;-77
2023/09/28 00:07:40;;;;;;;23.67;17.98;;;14.80;99.90;;;;;;2083919;28;20051;-78
2023/09/28 00:08:41;;;;;;;25.52;18.15;;;14.80;99.90;;;;;;2085093;28;20036;-76
2023/09/28 00:09:41;;;;;;;23.08;17.80;;;14.80;99.90;;;;;;2085675;28;20206;-77
2023/09/28 00:10:42;;;;;;;24.52;17.73;;;14.80;99.90;;;;;;2085658;28;20029;-78
2023/09/28 00:11:44;;;;;;;20.15;17.20;;;14.80;99.90;;;;;;2085427;28;20129;-77
2023/09/28 00:12:48;;;;;;;24.20;18.20;;;14.80;99.90;;;;;;2082562;28;20033;-76
2023/09/28 00:13:48;;;;;;;22.27;17.85;;;14.80;99.90;;;;;;2083300;28;20029;-76
2023/09/28 00:14:49;;;;;;;23.30;18.63;;;14.80;99.90;;;;;;2087018;28;20389;-77
2023/09/28 00:15:50;;;;;;;23.88;17.80;;;14.80;99.90;;;;;;2082213;28;20029;-76
2023/09/28 00:16:50;;;;;;;22.15;18.20;;;14.80;99.90;;;;;;2082947;28;20090;-76
2023/09/28 00:17:52;;;;;;;25.58;18.10;;;14.80;99.90;;;;;;2083652;28;20032;-76
2023/09/28 00:18:52;;;;;;;23.83;17.88;;;14.80;99.90;;;;;;2085610;28;20036;-77
2023/09/28 00:19:53;;;;;;;23.85;18.13;;;14.80;99.90;;;;;;2083239;28;20535;-77
2023/09/28 00:20:54;;;;;;;21.75;17.40;;;14.80;99.90;;;;;;2083095;28;20115;-76
2023/09/28 00:21:54;;;;;;;25.25;17.42;;;14.80;99.90;;;;;;2084757;28;20024;-77
2023/09/28 00:22:56;;;;;;;25.50;18.05;;;14.80;99.90;;;;;;2075264;28;20045;-76
2023/09/28 00:23:58;;;;;;;26.13;17.92;;;14.70;99.90;;;;;;2068605;28;20072;-77
2023/09/28 00:24:58;;;;;;;23.55;17.98;;;14.70;99.90;;;;;;2080007;28;20049;-76
2023/09/28 00:25:59;;;;;;;24.23;18.20;;;14.70;99.90;;;;;;2085064;28;20642;-77
2023/09/28 00:27:00;;;;;;;22.98;18.45;;;14.70;99.90;;;;;;2084977;28;20112;-77
2023/09/28 00:28:00;;;;;;;24.27;18.00;;;14.70;99.90;;;;;;2075867;28;20103;-77
2023/09/28 00:29:01;;;;;;;23.65;17.60;;;14.70;99.90;;;;;;2091561;28;20128;-76
2023/09/28 00:30:03;;;;;;;23.10;17.45;;;14.70;99.90;;;;;;2083475;28;20104;-76
2023/09/28 00:31:05;;;;;;;27.38;18.38;;;14.70;99.90;;;;;;2087192;28;20041;-77
2023/09/28 00:32:06;;;;;;;20.88;17.08;;;14.60;99.90;;;;;;2089480;28;20025;-77
2023/09/28 00:33:07;;;;;;;22.50;17.65;;;14.60;99.90;;;;;;2083680;28;20024;-77
2023/09/28 00:34:07;;;;;;;23.63;18.33;;;14.60;99.90;;;;;;2091785;28;20474;-77
2023/09/28 00:35:09;;;;;;;24.20;18.27;;;14.60;99.90;;;;;;2099926;28;20066;-76
2023/09/28 00:36:09;;;;;;;22.00;17.95;;;14.60;99.90;;;;;;2091535;28;20036;-77
2023/09/28 00:37:10;;;;;;;21.70;17.65;;;14.60;99.90;;;;;;2094955;28;20080;-77
2023/09/28 00:38:11;;;;;;;19.75;17.40;;;14.60;99.90;;;;;;2087959;28;20031;-77
2023/09/28 00:39:12;;;;;;;23.20;17.60;;;14.60;99.90;;;;;;2088419;28;20028;-78
2023/09/28 00:40:21;;;;;;;23.52;18.55;;;14.60;99.90;;;;;;2085333;28;20053;-78
2023/09/28 00:41:21;;;;;;;23.25;17.27;;;14.60;99.90;;;;;;2079747;28;20540;-78
2023/09/28 00:42:22;;;;;;;22.83;18.27;;;14.50;99.90;;;;;;2080650;28;20120;-77
2023/09/28 00:43:26;;;;;;;27.50;18.38;;;14.50;99.90;;;;;;2075918;28;20111;-76
2023/09/28 00:44:27;;;;;;;26.42;18.30;;;14.50;99.90;;;;;;2083878;28;20100;-77
2023/09/28 00:45:28;;;;;;;31.23;18.60;;;14.50;99.90;;;;;;2080521;28;20130;-77
2023/09/28 00:46:32;;;;;;;23.25;18.60;;;14.50;99.90;;;;;;2084815;28;20422;-77
2023/09/28 00:47:35;;;;;;;24.38;18.13;;;14.50;99.90;;;;;;2088101;28;20477;-77
2023/09/28 00:48:45;;;;;;;24.00;18.73;;;14.40;99.90;;;;;;2087617;28;20090;-77
2023/09/28 00:49:47;;;;;;;26.65;19.50;;;14.40;99.90;;;;;;2085088;28;20020;-77
2023/09/28 00:50:48;;;;;;;26.85;18.80;;;14.40;99.90;;;;;;2083005;28;20036;-77
2023/09/28 00:51:48;;;;;;;22.73;18.85;;;14.40;99.90;;;;;;2087101;28;20017;-78
2023/09/28 00:53:00;;;;;;;24.98;18.95;;;14.40;99.90;;;;;;2078859;28;20025;-75
2023/09/28 00:54:03;;;;;;;23.65;18.55;;;14.40;99.90;;;;;;2084534;28;20104;-76
2023/09/28 00:55:05;;;;;;;23.90;18.88;;;14.40;99.90;;;;;;2091505;28;20494;-77
2023/09/28 00:56:07;;;;;;;26.63;19.88;;;14.40;99.90;;;;;;2089768;28;20113;-76
2023/09/28 00:57:08;;;;;;;27.20;19.35;;;14.30;99.90;;;;;;2089832;28;20036;-76
2023/09/28 00:58:09;;;;;;;25.55;19.27;;;14.30;99.90;;;;;;2085063;28;20899;-76
2023/09/28 00:59:10;;;;;;;26.90;19.15;;;14.30;99.90;;;;;;2087585;28;20029;-76
2023/09/28 01:00:18;;;;;;;23.83;18.83;;;14.30;99.90;;;;;;2090791;28;20024;-77
2023/09/28 01:01:20;;;;;;;25.75;19.48;;;14.30;99.90;;;;;;2083940;28;20047;-75
2023/09/28 01:02:20;;;;;;;26.10;19.17;;;14.30;99.90;;;;;;2087626;28;20127;-76
2023/09/28 01:03:21;;;;;;;26.95;19.48;;;14.30;99.90;;;;;;2087344;28;20052;-76
2023/09/28 01:04:22;;;;;;;25.23;19.02;;;14.30;99.90;;;;;;2087198;28;20121;-76
2023/09/28 01:05:30;;;;;;;25.20;19.52;;;14.30;99.90;;;;;;2091928;28;20036;-77
2023/09/28 01:06:35;;;;;;;23.40;19.05;;;14.30;99.90;;;;;;2089360;28;20063;-77
2023/09/28 01:07:36;;;;;;;25.40;19.17;;;14.30;99.90;;;;;;2077416;28;20136;-77
2023/09/28 01:08:36;;;;;;;25.73;19.20;;;14.20;99.90;;;;;;2087902;28;20411;-77
2023/09/28 01:09:38;;;;;;;26.25;19.05;;;14.20;99.90;;;;;;2090360;28;20526;-77
2023/09/28 01:10:43;;;;;;;25.58;18.60;;;14.20;99.90;;;;;;2086493;28;20619;-77
2023/09/28 01:11:45;;;;;;;24.77;18.90;;;14.20;99.90;;;;;;2090652;28;20021;-77
2023/09/28 01:12:47;;;;;;;24.33;18.17;;;14.30;99.90;;;;;;2086964;28;20143;-77
2023/09/28 01:13:49;;;;;;;26.75;18.70;;;14.20;99.90;;;;;;2089723;28;20024;-76
2023/09/28 01:14:53;;;;;;;25.58;19.10;;;14.20;99.90;;;;;;2082638;28;20021;-75
2023/09/28 01:15:54;;;;;;;24.00;19.05;;;14.20;99.90;;;;;;2074665;28;20041;-78
2023/09/28 01:16:54;;;;;;;23.77;18.83;;;14.20;99.90;;;;;;2087494;28;20111;-77
2023/09/28 01:17:55;;;;;;;21.60;18.23;;;14.20;99.90;;;;;;2092038;28;20143;-77
2023/09/28 01:18:55;;;;;;;24.60;18.80;;;14.20;99.90;;;;;;2081552;28;20159;-77
2023/09/28 01:19:59;;;;;;;24.70;18.60;;;14.20;99.90;;;;;;2079056;28;20125;-77
2023/09/28 01:21:00;;;;;;;24.20;19.38;;;14.20;99.90;;;;;;2087608;28;20025;-77
2023/09/28 01:22:02;;;;;;;26.10;19.55;;;14.20;99.90;;;;;;2085165;28;20052;-77
2023/09/28 01:23:06;;;;;;;25.38;18.77;;;14.10;99.90;;;;;;2084626;28;20124;-78
2023/09/28 01:24:07;;;;;;;25.30;19.13;;;14.20;99.90;;;;;;2079263;28;20021;-68
2023/09/28 01:25:08;;;;;;;25.25;18.88;;;14.10;99.90;;;;;;2086663;28;20044;-69
2023/09/28 01:26:09;;;;;;;24.67;19.10;;;14.10;99.90;;;;;;2086136;28;20730;-68
2023/09/28 01:27:10;;;;;;;26.33;18.73;;;14.10;99.90;;;;;;2091651;28;20094;-68
2023/09/28 01:28:11;;;;;;;21.42;19.02;;;14.10;99.90;;;;;;2091584;28;20020;-69
2023/09/28 01:29:12;;;;;;;26.65;20.05;;;14.10;99.90;;;;;;2088410;28;20075;-68
2023/09/28 01:30:14;;;;;;;24.73;19.45;;;14.10;99.90;;;;;;2086567;28;20032;-68
2023/09/28 01:31:14;;;;;;;24.63;19.45;;;14.10;99.90;;;;;;2082351;28;20116;-68
2023/09/28 01:32:15;;;;;;;25.80;20.23;;;14.10;99.90;;;;;;2072098;28;20029;-68
2023/09/28 01:33:16;;;;;;;26.20;19.80;;;14.10;99.90;;;;;;2078808;28;20037;-69
2023/09/28 01:34:16;;;;;;;26.35;19.50;;;14.10;99.90;;;;;;2073902;28;20053;-68
2023/09/28 01:35:17;;;;;;;26.08;19.80;;;14.10;99.90;;;;;;2078554;28;20066;-68
2023/09/28 01:36:18;;;;;;;21.92;18.73;;;14.00;99.90;;;;;;2079227;28;20116;-68
2023/09/28 01:37:23;;;;;;;25.00;19.35;;;14.00;99.90;;;;;;2099171;28;20035;-68
2023/09/28 01:38:38;;;;;;;26.13;18.70;;;14.00;99.90;;;;;;2088031;28;20119;-67
2023/09/28 01:39:39;;;;;;;22.13;18.08;;;14.00;99.90;;;;;;2086753;28;20852;-70
2023/09/28 01:40:41;;;;;;;23.25;17.95;;;14.10;99.90;;;;;;2084289;28;20113;-68
2023/09/28 01:41:42;;;;;;;22.52;18.23;;;14.10;99.90;;;;;;2078190;28;20508;-68
2023/09/28 01:42:45;;;;;;;23.13;18.38;;;14.10;99.90;;;;;;2077855;28;20045;-68
2023/09/28 01:43:45;;;;;;;22.90;18.13;;;14.10;99.90;;;;;;2086923;28;20083;-68
2023/09/28 01:44:46;;;;;;;22.65;18.55;;;14.10;99.90;;;;;;2083675;28;20531;-68
2023/09/28 01:45:46;;;;;;;23.23;18.13;;;14.10;99.90;;;;;;2090481;28;20025;-68
2023/09/28 01:46:47;;;;;;;23.92;18.80;;;14.10;99.90;;;;;;2089094;28;20107;-70
2023/09/28 01:47:47;;;;;;;23.92;18.35;;;14.10;99.90;;;;;;2086485;28;20063;-68
2023/09/28 01:48:48;;;;;;;23.88;18.27;;;14.10;99.90;;;;;;2086694;28;20033;-68
2023/09/28 01:49:49;;;;;;;22.70;18.48;;;14.10;99.90;;;;;;2087884;28;20468;-68
2023/09/28 01:50:49;;;;;;;27.25;19.10;;;14.00;99.90;;;;;;2091346;28;20514;-68
2023/09/28 01:51:50;;;;;;;26.45;19.02;;;14.00;99.90;;;;;;2086776;28;20055;-68
2023/09/28 01:52:51;;;;;;;23.52;19.00;;;14.00;99.90;;;;;;2090760;28;20024;-69
2023/09/28 01:53:51;;;;;;;24.35;18.13;;;13.90;99.90;;;;;;2090850;28;20539;-67
2023/09/28 01:54:52;;;;;;;23.75;18.63;;;13.90;99.90;;;;;;2086128;28;20559;-68
2023/09/28 01:55:52;;;;;;;22.50;18.40;;;13.90;99.90;;;;;;2087631;28;20028;-68
2023/09/28 01:56:53;;;;;;;25.33;18.35;;;13.90;99.90;;;;;;2088715;28;20059;-68
2023/09/28 01:57:54;;;;;;;22.48;17.80;;;13.90;99.90;;;;;;2082491;28;20551;-68
2023/09/28 01:58:54;;;;;;;20.60;18.33;;;13.90;99.90;;;;;;2079045;28;20029;-67
2023/09/28 01:59:55;;;;;;;20.48;17.90;;;13.90;99.90;;;;;;2086339;28;20294;-68
2023/09/28 02:00:56;;;;;;;24.63;18.50;;;13.80;99.90;;;;;;2087525;28;20027;-68
2023/09/28 02:01:57;;;;;;;24.67;18.70;;;13.80;99.90;;;;;;2088792;28;20020;-68
2023/09/28 02:02:58;;;;;;;23.58;18.20;;;13.80;99.90;;;;;;2090667;28;20035;-68
2023/09/28 02:03:58;;;;;;;25.60;19.40;;;13.80;99.90;;;;;;2091253;28;20495;-68
2023/09/28 02:04:59;;;;;;;22.98;18.08;;;13.80;99.90;;;;;;2090278;28;20155;-67
2023/09/28 02:05:59;;;;;;;24.80;18.17;;;13.80;99.90;;;;;;2087723;28;20086;-67
2023/09/28 02:07:01;;;;;;;23.27;18.98;;;13.80;99.90;;;;;;2089134;28;20032;-71
2023/09/28 02:08:02;;;;;;;22.88;18.00;;;13.80;99.90;;;;;;2084990;28;20556;-69
2023/09/28 02:09:04;;;;;;;22.13;18.13;;;13.80;99.90;;;;;;2091300;28;20111;-69
2023/09/28 02:10:06;;;;;;;23.98;18.50;;;13.80;99.90;;;;;;2078543;28;20033;-69
2023/09/28 02:11:06;;;;;;;24.67;18.13;;;13.80;99.90;;;;;;2074032;28;20524;-70
2023/09/28 02:12:07;;;;;;;21.38;17.70;;;13.80;99.90;;;;;;2082360;28;20033;-69
2023/09/28 02:13:07;;;;;;;24.35;18.25;;;13.80;99.90;;;;;;2082573;28;20439;-69
2023/09/28 02:14:08;;;;;;;21.45;18.27;;;13.80;99.90;;;;;;2090433;28;20024;-70
2023/09/28 02:15:09;;;;;;;23.55;18.35;;;13.80;99.90;;;;;;2087308;28;20039;-69
2023/09/28 02:16:11;;;;;;;22.67;18.25;;;13.80;99.90;;;;;;2086097;28;20336;-69
2023/09/28 02:17:12;;;;;;;25.27;18.02;;;13.80;99.90;;;;;;2086975;28;20381;-70
2023/09/28 02:18:13;;;;;;;22.08;17.60;;;13.80;99.90;;;;;;2091286;28;20024;-68
2023/09/28 02:19:15;;;;;;;22.88;18.55;;;13.80;99.90;;;;;;2091348;28;20123;-68
2023/09/28 02:20:19;;;;;;;22.23;17.92;;;13.80;99.90;;;;;;2086493;28;20020;-68
2023/09/28 02:21:19;;;;;;;23.35;18.25;;;13.70;99.90;;;;;;2086628;28;20024;-68
2023/09/28 02:22:20;;;;;;;24.05;18.75;;;13.70;99.90;;;;;;2086371;28;20079;-68
2023/09/28 02:23:23;;;;;;;22.25;17.77;;;13.70;99.90;;;;;;2086737;28;20105;-68
2023/09/28 02:24:23;;;;;;;23.10;17.52;;;13.80;99.90;;;;;;2082521;28;20249;-69
2023/09/28 02:25:26;;;;;;;24.13;18.05;;;13.70;99.90;;;;;;2082516;28;20041;-68
2023/09/28 02:26:26;;;;;;;21.52;17.65;;;13.70;99.90;;;;;;2082383;28;20682;-68
2023/09/28 02:27:30;;;;;;;23.52;17.92;;;13.70;99.90;;;;;;2090464;28;20052;-68
2023/09/28 02:28:33;;;;;;;21.88;18.00;;;13.70;99.90;;;;;;2090623;28;20283;-68
2023/09/28 02:29:33;;;;;;;21.88;17.60;;;13.70;99.90;;;;;;2080818;28;20121;-68
2023/09/28 02:30:34;;;;;;;23.23;17.85;;;13.70;99.90;;;;;;2088074;28;20044;-68
2023/09/28 02:31:42;;;;;;;24.50;17.95;;;13.70;99.90;;;;;;2087179;28;20529;-67
2023/09/28 02:32:43;;;;;;;25.58;18.25;;;13.70;99.90;;;;;;2090165;28;20975;-68
2023/09/28 02:33:47;;;;;;;22.33;18.10;;;13.70;99.90;;;;;;2084792;28;20126;-68
2023/09/28 02:34:47;;;;;;;23.17;17.83;;;13.70;99.90;;;;;;2083181;28;20481;-68
2023/09/28 02:35:48;;;;;;;22.13;17.45;;;13.70;99.90;;;;;;2087294;28;20032;-68
2023/09/28 02:36:49;;;;;;;23.27;17.95;;;13.70;99.90;;;;;;2090504;28;20036;-69
2023/09/28 02:37:51;;;;;;;23.83;17.73;;;13.60;99.90;;;;;;2090922;28;20032;-70
2023/09/28 02:38:51;;;;;;;22.90;18.15;;;13.60;99.90;;;;;;2082298;28;20369;-68
2023/09/28 02:39:52;;;;;;;23.23;18.02;;;13.60;99.90;;;;;;2090310;28;20089;-72
2023/09/28 02:40:53;;;;;;;24.48;18.80;;;13.60;99.90;;;;;;2085920;28;20028;-70
2023/09/28 02:41:55;;;;;;;26.52;18.50;;;13.60;99.90;;;;;;2086449;28;20028;-67
2023/09/28 02:42:57;;;;;;;25.83;18.73;;;13.50;99.90;;;;;;2079369;28;20072;-70
2023/09/28 02:43:59;;;;;;;23.42;18.02;;;13.60;99.90;;;;;;2086425;28;20028;-69
2023/09/28 02:45:00;;;;;;;26.73;17.95;;;13.60;99.90;;;;;;2090030;28;20082;-69
2023/09/28 02:46:01;;;;;;;22.33;18.38;;;13.60;99.90;;;;;;2083588;28;20523;-69
2023/09/28 02:47:05;;;;;;;22.60;18.52;;;13.60;99.90;;;;;;2083437;28;20094;-69
2023/09/28 02:48:06;;;;;;;25.80;19.10;;;13.60;99.90;;;;;;2089920;28;20120;-69
2023/09/28 02:49:07;;;;;;;24.73;18.67;;;13.60;99.90;;;;;;2087243;28;20024;-69
2023/09/28 02:50:11;;;;;;;24.15;18.60;;;13.50;99.90;;;;;;2084983;28;20554;-69
2023/09/28 02:51:11;;;;;;;23.90;19.15;;;13.60;99.90;;;;;;2089124;28;20028;-68
2023/09/28 02:52:12;;;;;;;25.00;19.17;;;13.50;99.90;;;;;;2078301;28;20045;-69
2023/09/28 02:53:13;;;;;;;25.05;19.08;;;13.60;99.90;;;;;;2077273;28;20457;-69
2023/09/28 02:54:13;;;;;;;24.75;18.65;;;13.60;99.90;;;;;;2085593;28;20583;-69
2023/09/28 02:55:17;;;;;;;24.45;18.73;;;13.60;99.90;;;;;;2093203;28;20071;-69
2023/09/28 02:56:18;;;;;;;25.33;18.65;;;13.60;99.90;;;;;;2092450;28;20028;-69
2023/09/28 02:57:18;;;;;;;26.63;19.25;;;13.60;99.90;;;;;;2089206;28;20024;-69
2023/09/28 02:58:21;;;;;;;24.23;18.38;;;13.60;99.90;;;;;;2084602;28;20587;-69
2023/09/28 02:59:22;;;;;;;24.15;18.45;;;13.60;99.90;;;;;;2075514;28;20145;-69
2023/09/28 03:01:24;;;;;;;23.67;17.75;;;13.60;99.90;;;;;;2092397;28;20029;-69
2023/09/28 03:02:25;;;;;;;26.23;17.85;;;13.60;99.90;;;;;;2092962;28;20623;-69
2023/09/28 03:03:26;;;;;;;23.88;18.60;;;13.60;99.90;;;;;;2092955;28;20030;-69
2023/09/28 03:04:31;;;;;;;25.13;17.45;;;13.70;99.90;;;;;;2088833;28;20024;-70
2023/09/28 03:05:32;;;;;;;23.13;17.98;;;13.70;99.90;;;;;;2079128;28;20476;-67
2023/09/28 03:06:37;;;;;;;21.33;17.85;;;13.70;99.90;;;;;;2079163;28;20085;-69
2023/09/28 03:07:39;;;;;;;24.00;17.33;;;13.70;99.90;;;;;;2089178;28;20120;-68
2023/09/28 03:08:39;;;;;;;23.83;17.50;;;13.70;99.90;;;;;;2090171;28;20479;-70
2023/09/28 03:09:40;;;;;;;21.80;18.08;;;13.70;99.90;;;;;;2081839;28;20184;-69
2023/09/28 03:10:44;;;;;;;24.60;17.80;;;13.70;99.90;;;;;;2091868;28;20139;-69
2023/09/28 03:11:45;;;;;;;23.95;17.55;;;13.70;99.90;;;;;;2087550;28;20029;-69
2023/09/28 03:12:46;;;;;;;26.25;17.52;;;13.70;99.90;;;;;;2084785;28;20021;-69
2023/09/28 03:13:48;;;;;;;25.30;18.48;;;13.70;99.90;;;;;;2079950;28;20055;-69
2023/09/28 03:14:49;;;;;;;21.85;18.30;;;13.60;99.90;;;;;;2083195;28;20135;-69
2023/09/28 03:15:49;;;;;;;25.45;18.15;;;13.60;99.90;;;;;;2083539;28;20029;-69
2023/09/28 03:16:50;;;;;;;23.70;17.40;;;13.60;99.90;;;;;;2089371;28;20099;-69
2023/09/28 03:17:50;;;;;;;23.63;17.77;;;13.60;99.90;;;;;;2088005;28;20112;-70
2023/09/28 03:18:52;;;;;;;24.52;18.60;;;13.60;99.90;;;;;;2088008;28;20029;-69
2023/09/28 03:19:53;;;;;;;22.92;18.90;;;13.60;99.90;;;;;;2083477;28;20108;-67
2023/09/28 03:20:53;;;;;;;25.08;18.90;;;13.60;99.90;;;;;;2092095;28;20164;-69
2023/09/28 03:21:54;;;;;;;25.35;18.67;;;13.60;99.90;;;;;;2091954;28;20032;-69
2023/09/28 03:22:56;;;;;;;23.73;17.77;;;13.60;99.90;;;;;;2091894;28;20143;-70
2023/09/28 03:23:57;;;;;;;21.75;17.38;;;13.60;99.90;;;;;;2084061;28;20487;-67
2023/09/28 03:24:58;;;;;;;24.00;18.02;;;13.60;99.90;;;;;;2083145;28;20124;-69
2023/09/28 03:25:59;;;;;;;27.38;18.17;;;13.50;99.90;;;;;;2091872;28;20078;-70
2023/09/28 03:26:59;;;;;;;26.67;18.20;;;13.50;99.90;;;;;;2088520;28;20029;-69
2023/09/28 03:28:00;;;;;;;24.73;18.27;;;13.50;99.90;;;;;;2092089;28;20103;-67
2023/09/28 03:29:00;;;;;;;24.10;18.35;;;13.50;99.90;;;;;;2087355;28;20411;-68
2023/09/28 03:30:05;;;;;;;23.35;18.10;;;13.50;99.90;;;;;;2079262;28;20028;-68
2023/09/28 03:31:06;;;;;;;25.00;18.50;;;13.50;99.90;;;;;;2081241;28;20508;-69
2023/09/28 03:32:07;;;;;;;28.23;19.05;;;13.40;99.90;;;;;;2091974;28;20025;-68
2023/09/28 03:33:07;;;;;;;23.70;18.38;;;13.40;99.90;;;;;;2091018;28;20033;-68
2023/09/28 03:34:08;;;;;;;25.52;18.73;;;13.40;99.90;;;;;;2089144;28;20127;-68
2023/09/28 03:35:12;;;;;;;24.73;18.58;;;13.40;99.90;;;;;;2085925;28;20025;-68
2023/09/28 03:36:13;;;;;;;27.80;18.83;;;13.40;99.90;;;;;;2083569;28;20063;-69
2023/09/28 03:37:18;;;;;;;27.20;18.80;;;13.40;99.90;;;;;;2081082;28;20045;-69
2023/09/28 03:38:19;;;;;;;24.00;19.08;;;13.40;99.90;;;;;;2090851;28;20132;-69
2023/09/28 03:39:19;;;;;;;23.05;17.80;;;13.30;99.90;;;;;;2089929;28;20028;-70
2023/09/28 03:40:20;;;;;;;23.85;18.92;;;13.30;99.90;;;;;;2086554;28;20032;-69
2023/09/28 03:41:20;;;;;;;25.40;19.48;;;13.30;99.90;;;;;;2090868;28;20036;-69
2023/09/28 03:42:21;;;;;;;25.20;19.13;;;13.30;99.90;;;;;;2086780;28;20110;-69
2023/09/28 03:43:22;;;;;;;23.65;18.52;;;13.30;99.90;;;;;;2084054;28;20087;-68
2023/09/28 03:44:22;;;;;;;25.85;18.67;;;13.30;99.90;;;;;;2089924;28;20040;-69
2023/09/28 03:45:23;;;;;;;25.52;18.42;;;13.30;99.90;;;;;;2091446;28;20525;-68
2023/09/28 03:46:23;;;;;;;25.98;18.38;;;13.40;99.90;;;;;;2088882;28;20029;-68
2023/09/28 03:47:24;;;;;;;25.67;18.95;;;13.40;99.90;;;;;;2091232;28;20040;-68
2023/09/28 03:48:25;;;;;;;24.85;18.08;;;13.40;99.90;;;;;;2084643;28;20029;-68
2023/09/28 03:49:26;;;;;;;25.83;19.17;;;13.40;99.90;;;;;;2092064;28;20491;-68
2023/09/28 03:50:27;;;;;;;24.65;19.33;;;13.30;99.90;;;;;;2083204;28;20124;-69
2023/09/28 03:51:28;;;;;;;23.00;18.13;;;13.30;99.90;;;;;;2079297;28;20064;-69
2023/09/28 03:52:29;;;;;;;24.80;18.25;;;13.30;99.90;;;;;;2092527;28;20052;-68
2023/09/28 03:53:32;;;;;;;25.30;17.67;;;13.40;99.90;;;;;;2088951;28;20024;-68
2023/09/28 03:54:33;;;;;;;27.70;17.48;;;13.40;99.90;;;;;;2084629;28;20040;-68
2023/09/28 03:55:33;;;;;;;23.13;17.52;;;13.40;99.90;;;;;;2088353;28;20032;-69
2023/09/28 03:56:34;;;;;;;24.70;16.60;;;13.50;99.90;;;;;;2093051;28;20035;-68
2023/09/28 03:57:34;;;;;;;24.00;17.55;;;13.50;99.90;;;;;;2093062;28;20017;-67
2023/09/28 03:58:35;;;;;;;24.17;17.70;;;13.60;99.90;;;;;;2086431;28;20021;-77
2023/09/28 03:59:36;;;;;;;23.35;17.70;;;13.50;99.90;;;;;;2079131;28;20074;-77
2023/09/28 04:00:37;;;;;;;25.80;18.08;;;13.50;99.90;;;;;;2083525;28;20332;-77
2023/09/28 04:01:44;;;;;;;26.67;17.73;;;13.40;99.90;;;;;;2077855;28;20033;-77
2023/09/28 04:02:47;;;;;;;23.33;17.33;;;13.40;99.90;;;;;;2072746;28;20507;-77
2023/09/28 04:03:49;;;;;;;27.75;17.95;;;13.30;99.90;;;;;;2071138;28;20049;-77
2023/09/28 04:04:50;;;;;;;23.85;17.60;;;13.30;99.90;;;;;;2089479;28;20052;-77
2023/09/28 04:05:50;;;;;;;24.48;17.88;;;13.30;99.90;;;;;;2087381;28;20526;-77
2023/09/28 04:06:51;;;;;;;25.17;18.33;;;13.20;99.90;;;;;;2088241;28;20029;-78
2023/09/28 04:07:52;;;;;;;28.00;18.48;;;13.20;99.90;;;;;;2075098;28;20516;-73
2023/09/28 04:08:52;;;;;;;29.27;18.38;;;13.20;99.90;;;;;;2090986;28;20044;-73
2023/09/28 04:09:53;;;;;;;23.75;17.90;;;13.20;99.90;;;;;;2088999;28;20082;-74
2023/09/28 04:10:55;;;;;;;23.98;17.63;;;13.10;99.90;;;;;;2091712;28;20039;-73
2023/09/28 04:11:55;;;;;;;22.80;18.02;;;13.10;99.90;;;;;;2092557;28;20544;-73
2023/09/28 04:12:56;;;;;;;23.13;18.13;;;13.10;99.90;;;;;;2092540;28;20036;-73
2023/09/28 04:13:57;;;;;;;21.88;17.70;;;13.10;99.90;;;;;;2092275;28;20052;-74
2023/09/28 04:14:58;;;;;;;23.60;17.42;;;13.10;99.90;;;;;;2090814;28;20086;-72
2023/09/28 04:15:58;;;;;;;24.60;18.17;;;13.10;99.90;;;;;;2084449;28;20033;-76
2023/09/28 04:16:59;;;;;;;22.83;17.38;;;13.10;99.90;;;;;;2088316;28;20484;-76
2023/09/28 04:18:00;;;;;;;25.35;18.48;;;13.10;99.90;;;;;;2092015;28;20191;-75
2023/09/28 04:19:01;;;;;;;25.60;18.52;;;13.10;99.90;;;;;;2083610;28;20083;-76
2023/09/28 04:20:04;;;;;;;24.05;18.92;;;13.10;99.90;;;;;;2091211;28;20075;-78
2023/09/28 04:21:05;;;;;;;27.13;17.92;;;13.00;99.90;;;;;;2089374;28;20078;-80
2023/09/28 04:22:05;;;;;;;27.23;19.02;;;13.00;99.90;;;;;;2087486;28;20029;-81
2023/09/28 04:23:08;;;;;;;30.27;19.35;;;13.00;99.90;;;;;;2091713;28;20055;-79
2023/09/28 04:24:08;;;;;;;26.45;19.25;;;13.00;99.90;;;;;;2088347;28;20079;-78
2023/09/28 04:25:10;;;;;;;28.08;19.40;;;13.00;99.90;;;;;;2092252;28;20522;-78
2023/09/28 04:26:10;;;;;;;27.73;19.20;;;13.00;99.90;;;;;;2089419;28;20028;-76
2023/09/28 04:27:11;;;;;;;26.52;19.40;;;13.00;99.90;;;;;;2089115;28;20039;-78
2023/09/28 04:28:12;;;;;;;29.85;18.60;;;13.00;99.90;;;;;;2091223;28;20033;-77
2023/09/28 04:29:13;;;;;;;31.10;19.75;;;13.00;99.90;;;;;;2091896;28;20039;-78
2023/09/28 04:30:13;;;;;;;33.83;19.38;;;13.00;99.90;;;;;;2092181;28;20086;-78
2023/09/28 04:31:14;;;;;;;28.58;19.48;;;13.00;99.90;;;;;;2090102;28;20112;-78
2023/09/28 04:32:15;;;;;;;29.50;20.08;;;13.00;99.90;;;;;;2086249;28;20052;-77
2023/09/28 04:33:16;;;;;;;30.38;19.20;;;13.00;99.90;;;;;;2087933;28;20033;-77
2023/09/28 04:34:20;;;;;;;27.33;19.02;;;13.00;99.90;;;;;;2086842;28;20080;-77
2023/09/28 04:35:21;;;;;;;28.30;19.65;;;13.00;99.90;;;;;;2076145;28;20029;-78
2023/09/28 04:36:22;;;;;;;33.42;20.83;;;13.00;99.90;;;;;;2082360;28;20025;-78
2023/09/28 04:37:23;;;;;;;35.97;20.45;;;13.00;99.90;;;;;;2087309;28;20082;-78
2023/09/28 04:38:24;;;;;;;29.80;19.83;;;12.90;99.90;;;;;;2084135;28;20029;-77
2023/09/28 04:39:25;;;;;;;36.85;19.90;;;12.90;99.90;;;;;;2083252;28;20024;-73
2023/09/28 04:40:26;;;;;;;33.88;20.50;;;12.90;99.90;;;;;;2088157;28;20017;-75
2023/09/28 04:41:26;;;;;;;31.70;20.20;;;12.90;99.90;;;;;;2088108;28;20463;-75
2023/09/28 04:42:27;;;;;;;34.33;20.48;;;12.90;99.90;;;;;;2091282;28;20024;-75
2023/09/28 04:43:28;;;;;;;31.60;20.58;;;12.90;99.90;;;;;;2083725;28;20025;-74
2023/09/28 04:44:29;;;;;;;37.72;21.20;;;12.90;99.90;;;;;;2085807;28;20059;-74
2023/09/28 04:45:30;;;;;;;33.88;20.40;;;12.90;99.90;;;;;;2092329;28;20499;-75
2023/09/28 04:46:31;;;;;;;35.90;20.55;;;12.90;99.90;;;;;;2091566;28;20037;-74
2023/09/28 04:47:32;;;;;;;37.17;20.85;;;12.90;99.90;;;;;;2091534;28;20509;-75
2023/09/28 04:48:33;;;;;;;38.35;20.98;;;12.90;99.90;;;;;;2091845;28;20016;-75
2023/09/28 04:49:34;;;;;;;36.22;20.38;;;12.90;99.90;;;;;;2088663;28;20036;-75
2023/09/28 04:50:34;;;;;;;33.05;20.50;;;12.90;99.90;;;;;;2090143;28;20028;-75
2023/09/28 04:51:35;;;;;;;34.55;20.35;;;12.90;99.90;;;;;;2084525;28;20063;-75
2023/09/28 04:52:35;;;;;;;35.70;20.00;;;12.90;99.90;;;;;;2092223;28;20036;-75
2023/09/28 04:53:36;;;;;;;35.72;20.58;;;12.90;99.90;;;;;;2088246;28;20041;-75
2023/09/28 04:54:37;;;;;;;37.63;20.60;;;12.90;99.90;;;;;;2091594;28;20268;-74
2023/09/28 04:55:38;;;;;;;37.92;20.92;;;12.90;99.90;;;;;;2088064;28;20056;-74
2023/09/28 04:56:41;;;;;;;34.88;20.67;;;12.80;99.90;;;;;;2091017;28;20036;-74
2023/09/28 04:57:41;;;;;;;31.45;20.77;;;12.90;99.90;;;;;;2087645;28;20475;-74
2023/09/28 04:58:42;;;;;;;32.78;20.70;;;12.80;99.90;;;;;;2091864;28;20115;-74
2023/09/28 04:59:43;;;;;;;34.20;21.27;;;12.80;99.90;;;;;;2087406;28;20036;-73
2023/09/28 05:00:44;;;;;;;42.55;21.50;;;12.80;99.90;;;;;;2085081;28;20050;-74
2023/09/28 05:01:45;;;;;;;35.03;20.80;;;12.80;99.90;;;;;;2089277;28;20411;-76
2023/09/28 05:02:46;;;;;;;31.95;20.60;;;12.80;99.90;;;;;;2090029;28;20036;-74
2023/09/28 05:03:47;;;;;;;40.10;20.50;;;12.80;99.90;;;;;;2087124;28;20079;-75
2023/09/28 05:04:48;;;;;;;37.38;21.08;;;12.80;99.90;;;;;;2088534;28;20634;-75
2023/09/28 05:05:49;;;;;;;34.35;20.65;;;12.80;99.90;;;;;;2090227;28;20077;-76
2023/09/28 05:06:49;;;;;;;35.50;20.45;;;12.80;99.90;;;;;;2091121;28;20042;-71
2023/09/28 05:07:50;;;;;;;33.05;21.02;;;12.80;99.90;;;;;;2091374;28;20551;-72
2023/09/28 05:08:50;;;;;;;30.92;19.95;;;12.80;99.90;;;;;;2091099;28;20028;-72
2023/09/28 05:09:51;;;;;;;31.15;20.63;;;12.80;99.90;;;;;;2091716;28;20414;-72
2023/09/28 05:10:55;;;;;;;38.40;21.23;;;12.90;99.90;;;;;;2091881;28;20074;-73
2023/09/28 05:11:59;;;;;;;34.97;21.80;;;12.90;99.90;;;;;;2088309;28;20036;-72
2023/09/28 05:12:59;;;;;;;36.28;21.48;;;12.80;99.90;;;;;;2082766;28;20298;-72